createdAt,value
2022-11-24T00:05:03.923Z,9.05
2022-11-24T00:10:35.800Z,9.09
2022-11-24T00:16:07.232Z,9.15
2022-11-24T00:21:39.294Z,9.16
2022-11-24T00:27:16.834Z,9.16
2022-11-24T00:32:54.683Z,9.16
2022-11-24T00:38:26.337Z,9.22
2022-11-24T00:43:58.860Z,9.21
2022-11-24T00:49:36.431Z,9.16
2022-11-24T00:55:14.292Z,9.15
2022-11-24T01:00:52.031Z,9.18
2022-11-24T01:06:29.805Z,9.15
2022-11-24T01:12:01.868Z,9.19
2022-11-24T01:17:33.488Z,9.14
2022-11-24T01:23:05.306Z,9.09
2022-11-24T01:28:47.038Z,9.07
2022-11-24T01:34:20.443Z,8.97
2022-11-24T01:39:52.294Z,8.94
2022-11-24T01:45:29.763Z,8.90
2022-11-24T01:51:01.574Z,8.88
2022-11-24T01:56:33.318Z,8.84
2022-11-24T02:02:11.002Z,8.82
2022-11-24T02:07:42.835Z,8.84
2022-11-24T02:13:20.627Z,8.87
2022-11-24T02:18:52.179Z,8.88
2022-11-24T02:24:23.761Z,8.88
2022-11-24T02:29:55.410Z,8.92
2022-11-24T02:37:48.419Z,8.94
2022-11-24T02:43:20.086Z,8.98
2022-11-24T02:48:57.689Z,9.01
2022-11-24T02:54:29.231Z,8.99
2022-11-24T03:00:07.151Z,8.99
2022-11-24T03:05:38.944Z,9.01
2022-11-24T03:11:10.618Z,9.08
2022-11-24T03:16:48.688Z,9.08
2022-11-24T03:22:26.128Z,9.14
2022-11-24T03:27:57.868Z,9.14
2022-11-24T03:33:29.909Z,9.18
2022-11-24T03:39:07.468Z,9.19
2022-11-24T03:44:39.225Z,9.22
2022-11-24T03:50:11.112Z,9.21
2022-11-24T03:55:48.674Z,9.23
2022-11-24T04:01:27.886Z,9.26
2022-11-24T04:07:05.545Z,9.30
2022-11-24T04:12:43.376Z,9.32
2022-11-24T04:18:21.351Z,9.36
2022-11-24T04:20:44.164Z,0.00
2022-11-24T04:26:14.940Z,9.37
2022-11-24T04:31:45.931Z,9.37
2022-11-24T04:37:24.575Z,9.33
2022-11-24T04:43:02.217Z,9.36
2022-11-24T04:48:39.613Z,9.42
2022-11-24T04:59:46.820Z,9.49
2022-11-24T05:05:24.672Z,9.49
2022-11-24T05:11:02.448Z,9.50
2022-11-24T05:16:34.231Z,9.50
2022-11-24T05:22:11.997Z,9.47
2022-11-24T05:27:49.399Z,9.46
2022-11-24T05:33:26.511Z,9.46
2022-11-24T05:39:03.891Z,9.44
2022-11-24T05:44:41.657Z,9.44
2022-11-24T05:50:21.240Z,9.46
2022-11-24T05:55:59.085Z,9.49
2022-11-24T06:01:37.012Z,9.50
2022-11-24T06:07:14.796Z,9.58
2022-11-24T06:12:46.468Z,9.60
2022-11-24T06:18:19.242Z,9.63
2022-11-24T06:26:11.520Z,9.68
2022-11-24T06:31:43.155Z,9.75
2022-11-24T06:37:14.910Z,9.82
2022-11-24T06:42:46.586Z,9.84
2022-11-24T06:48:18.529Z,9.91
2022-11-24T06:53:50.193Z,9.92
2022-11-24T06:59:21.873Z,9.98
2022-11-24T07:04:53.946Z,9.98
2022-11-24T07:10:25.615Z,10.05
2022-11-24T07:15:57.320Z,10.06
2022-11-24T07:21:29.175Z,10.12
2022-11-24T07:27:01.005Z,10.15
2022-11-24T07:32:32.791Z,10.20
2022-11-24T07:38:04.622Z,10.25
2022-11-24T07:43:36.374Z,10.32
2022-11-24T07:49:14.201Z,10.39
2022-11-24T07:54:45.996Z,10.59
2022-11-24T08:00:19.837Z,10.73
2022-11-24T08:11:29.351Z,11.22
2022-11-24T08:17:01.107Z,11.61
2022-11-24T08:22:38.462Z,11.95
2022-11-24T08:28:10.449Z,13.09
2022-11-24T08:33:42.119Z,13.60
2022-11-24T08:39:13.817Z,14.41
2022-11-24T08:44:45.659Z,14.61
2022-11-24T08:50:23.454Z,14.47
2022-11-24T08:55:55.286Z,14.38
2022-11-24T09:01:27.318Z,14.20
2022-11-24T09:06:58.978Z,14.16
2022-11-24T09:12:30.961Z,14.12
2022-11-24T09:18:02.819Z,13.99
2022-11-24T09:23:34.386Z,13.91
2022-11-24T09:29:06.167Z,13.75
2022-11-24T09:34:37.920Z,13.74
2022-11-24T09:40:09.911Z,13.82
2022-11-24T09:46:05.083Z,13.81
2022-11-24T09:51:19.951Z,13.81
2022-11-24T09:56:58.354Z,13.75
2022-11-24T10:02:30.174Z,13.73
2022-11-24T10:08:02.225Z,13.70
2022-11-24T10:13:34.626Z,13.70
2022-11-24T10:19:08.351Z,13.64
2022-11-24T10:24:40.233Z,13.26
2022-11-24T10:30:12.320Z,12.96
2022-11-24T10:35:43.992Z,12.29
2022-11-24T10:41:15.811Z,11.93
2022-11-24T10:46:48.120Z,11.26
2022-11-24T10:52:20.086Z,11.03
2022-11-24T10:57:51.991Z,10.78
2022-11-24T11:03:23.939Z,10.81
2022-11-24T11:09:01.995Z,10.99
2022-11-24T11:14:33.979Z,11.08
2022-11-24T11:20:06.300Z,11.22
2022-11-24T11:25:37.742Z,11.22
2022-11-24T11:31:19.187Z,11.15
2022-11-24T11:39:04.774Z,11.12
2022-11-24T11:44:36.766Z,11.12
2022-11-24T11:50:08.414Z,11.05
2022-11-24T11:55:41.993Z,10.96
2022-11-24T12:01:11.921Z,10.81
2022-11-24T12:06:43.326Z,10.77
2022-11-24T12:12:15.195Z,10.78
2022-11-24T12:17:46.949Z,10.84
2022-11-24T12:23:18.431Z,10.92
2022-11-24T12:28:56.040Z,10.96
2022-11-24T12:34:27.845Z,11.03
2022-11-24T12:39:59.687Z,11.10
2022-11-24T12:45:37.681Z,11.18
2022-11-24T12:51:09.330Z,11.20
2022-11-24T12:56:46.878Z,11.27
2022-11-24T13:02:18.456Z,11.22
2022-11-24T13:13:27.858Z,11.33
2022-11-24T13:18:59.727Z,11.47
2022-11-24T13:24:31.483Z,11.55
2022-11-24T13:35:36.942Z,11.70
2022-11-24T13:41:28.136Z,11.70
2022-11-24T13:46:43.778Z,11.71
2022-11-24T13:52:21.370Z,11.68
2022-11-24T13:57:53.157Z,11.63
2022-11-24T14:03:24.620Z,11.60
2022-11-24T14:08:56.341Z,11.63
2022-11-24T14:14:34.377Z,11.67
2022-11-24T14:25:49.412Z,11.57
2022-11-24T14:31:27.301Z,11.49
2022-11-24T14:36:59.071Z,11.30
2022-11-24T14:42:36.672Z,11.20
2022-11-24T14:48:08.555Z,11.05
2022-11-24T14:53:40.383Z,10.94
2022-11-24T14:59:12.173Z,10.70
2022-11-24T15:05:05.813Z,10.56
2022-11-24T15:10:21.812Z,10.23
2022-11-24T15:15:57.569Z,10.08
2022-11-24T15:21:25.021Z,9.90
2022-11-24T15:26:56.739Z,9.82
2022-11-24T15:32:34.356Z,9.65
2022-11-24T15:38:05.919Z,9.54
2022-11-24T15:43:37.701Z,9.44
2022-11-24T15:49:15.194Z,9.21
2022-11-24T15:54:46.623Z,9.16
2022-11-24T16:00:18.525Z,9.02
2022-11-24T16:05:50.210Z,8.95
2022-11-24T16:11:21.936Z,8.88
2022-11-24T16:16:53.875Z,8.81
2022-11-24T16:22:25.660Z,8.78
2022-11-24T16:27:57.370Z,8.71
2022-11-24T16:33:29.132Z,8.70
2022-11-24T16:39:01.029Z,8.70
2022-11-24T16:44:33.214Z,8.77
2022-11-24T16:50:04.577Z,8.80
2022-11-24T16:55:36.108Z,8.86
2022-11-24T17:01:07.810Z,8.90
2022-11-24T17:06:39.679Z,8.91
2022-11-24T17:12:11.699Z,8.88
2022-11-24T17:18:08.309Z,8.87
2022-11-24T17:23:15.345Z,8.88
2022-11-24T17:28:46.970Z,8.95
2022-11-24T17:34:18.692Z,8.95
2022-11-24T17:45:19.655Z,8.90
2022-11-24T17:50:51.559Z,8.87
2022-11-24T17:56:23.231Z,8.86
2022-11-24T18:07:24.529Z,8.82
2022-11-24T18:12:56.031Z,8.78
2022-11-24T18:18:27.794Z,8.72
2022-11-24T18:29:28.930Z,8.53
2022-11-24T18:35:00.699Z,8.43
2022-11-24T18:40:32.369Z,8.22
2022-11-24T18:46:04.316Z,8.11
2022-11-24T18:57:07.879Z,7.91
2022-11-24T19:02:39.722Z,7.80
2022-11-24T19:13:43.235Z,7.66
2022-11-24T19:24:48.776Z,7.54
2022-11-24T19:30:20.436Z,7.50
2022-11-24T19:36:00.883Z,7.38
2022-11-24T19:41:32.730Z,7.29
2022-11-24T19:47:04.585Z,7.14
2022-11-24T19:52:36.290Z,7.08
2022-11-24T20:03:37.193Z,6.87
2022-11-24T20:14:42.775Z,6.60
2022-11-24T20:20:14.748Z,6.45
2022-11-24T20:25:46.436Z,6.38
2022-11-24T20:36:51.910Z,6.17
2022-11-24T20:42:23.621Z,6.04
2022-11-24T20:53:24.909Z,5.89
2022-11-24T21:04:28.518Z,5.80
2022-11-24T21:10:00.337Z,5.77
2022-11-24T21:15:32.228Z,5.75
2022-11-24T21:21:03.854Z,5.69
2022-11-24T21:26:35.825Z,5.62
2022-11-24T21:32:07.724Z,5.56
2022-11-24T21:37:39.366Z,5.50
2022-11-24T21:43:11.001Z,5.45
2022-11-24T21:48:42.889Z,5.43
2022-11-24T21:54:14.529Z,5.39
2022-11-24T21:59:46.569Z,5.34
2022-11-24T22:07:39.389Z,0.00
2022-11-24T22:13:10.655Z,5.24
2022-11-24T22:18:42.253Z,5.22
2022-11-24T22:24:13.905Z,5.11
2022-11-24T22:29:49.986Z,5.07
2022-11-24T22:35:17.549Z,4.97
2022-11-24T22:46:21.151Z,4.84
2022-11-24T22:57:24.579Z,4.80
2022-11-24T23:02:56.288Z,4.77
2022-11-24T23:08:29.155Z,4.69
2022-11-24T23:14:00.854Z,4.69
2022-11-24T23:19:32.696Z,4.62
2022-11-24T23:25:10.290Z,4.61
2022-11-24T23:30:41.997Z,4.54
2022-11-24T23:36:19.868Z,4.45
2022-11-24T23:41:51.534Z,4.39
2022-11-24T23:47:23.256Z,4.35
2022-11-24T23:52:55.136Z,4.34
2022-11-24T23:58:26.442Z,4.35
